Irasville, Vermont
Current Conditions -  °F | °C
As of 5:51 AM on Friday 24 Oct 2014 (Local Time) from KMPV Reporting Station
Overcast Overcast  
Wind Chill: 34°   Ceiling: 200
Heat Index: 40°   Visibility: 10mi
Dew Point: 40°   Wind: 8mph
Humidity: 100%   Direction: 320°NW
Pressure: 29.82"   Gusts: NA
Location:  44.1924°N, 72.8443°W
Report Text: KMPV 240951Z AUTO 32007KT 10SM OVC002 04/04 A2982 RMK AO2 RAB10E46 SLP106 P0000 T00440044
Loading
Personal Weather Stations






























Interactive Weather Map
Tropical Storm Tracking
New forecast layout! Learn more

10-Day Weather Forecast

Advertisements
Track Severe Weather on mobile